Time;durP1;ratioP1;P1;durP2;ratioP2;P2;SDS_P1;SDS_P2;PMS_P1;PMS_P2;Temp;Humidity;BMP_temperature;BMP_pressure;BME280_temperature;BME280_humidity;BME280_pressure;Samples;Min_cycle;Max_cycle;Signal;HPM_P1;HPM_P2
2022/08/26 00:01:44;;;;;;;23.27;16.55;;;23.10;91.20;;;;;;4185280;28;20041;-85
2022/08/26 00:03:45;;;;;;;24.58;15.57;;;23.00;91.30;;;;;;4185929;28;20055;-86
2022/08/26 00:05:46;;;;;;;24.02;16.00;;;23.00;91.60;;;;;;4185413;28;20044;-85
2022/08/26 00:07:47;;;;;;;27.80;15.90;;;22.90;91.60;;;;;;4184902;28;20096;-85
2022/08/26 00:09:48;;;;;;;23.88;15.55;;;22.90;91.90;;;;;;4182572;28;20045;-84
2022/08/26 00:11:48;;;;;;;24.55;15.48;;;22.80;92.00;;;;;;4181416;28;20075;-85
2022/08/26 00:13:49;;;;;;;26.35;17.23;;;22.70;92.20;;;;;;4183765;28;20401;-84
2022/08/26 00:15:51;;;;;;;24.15;16.92;;;22.70;92.40;;;;;;4183734;28;20041;-84
2022/08/26 00:17:52;;;;;;;22.23;14.85;;;22.60;92.70;;;;;;4182046;28;20052;-84
2022/08/26 00:19:53;;;;;;;26.33;15.65;;;22.60;92.90;;;;;;4181706;28;20045;-84
2022/08/26 00:21:55;;;;;;;24.45;16.27;;;22.50;93.10;;;;;;4182545;28;20087;-85
2022/08/26 00:23:56;;;;;;;26.38;15.60;;;22.50;93.20;;;;;;4182305;28;20056;-85
2022/08/26 00:25:57;;;;;;;24.05;14.82;;;22.40;93.30;;;;;;4182711;28;20068;-85
2022/08/26 00:28:00;;;;;;;26.70;14.65;;;22.40;93.50;;;;;;4182982;28;20163;-84
2022/08/26 00:30:05;;;;;;;23.63;14.88;;;22.30;93.70;;;;;;4183072;28;20047;-85
2022/08/26 00:32:06;;;;;;;19.52;13.88;;;22.30;94.00;;;;;;4182842;28;20081;-85
2022/08/26 00:34:07;;;;;;;21.13;14.45;;;22.30;94.20;;;;;;4181647;28;20064;-84
2022/08/26 00:36:09;;;;;;;40.55;14.27;;;22.30;94.40;;;;;;4183311;28;20513;-85
2022/08/26 00:38:09;;;;;;;21.80;12.60;;;22.30;94.50;;;;;;4182258;28;20052;-85
2022/08/26 00:40:14;;;;;;;25.50;12.52;;;22.30;94.60;;;;;;4165335;28;20042;-84
2022/08/26 00:42:15;;;;;;;22.58;13.25;;;22.20;94.70;;;;;;4183742;28;20045;-84
2022/08/26 00:44:16;;;;;;;21.52;13.02;;;22.30;94.90;;;;;;4183475;28;20125;-84
2022/08/26 00:46:27;;;;;;;19.13;12.65;;;22.30;95.10;;;;;;4181514;28;20518;-85
2022/08/26 00:48:31;;;;;;;21.25;12.18;;;22.30;95.50;;;;;;4181722;28;20041;-85
2022/08/26 00:50:45;;;;;;;23.75;12.63;;;22.20;95.60;;;;;;4181652;28;20060;-85
2022/08/26 00:52:46;;;;;;;16.08;10.63;;;22.20;96.10;;;;;;4165174;28;20049;-84
2022/08/26 00:55:10;;;;;;;23.70;10.80;;;22.20;96.00;;;;;;4183131;28;20512;-84
2022/08/26 00:57:15;;;;;;;20.17;11.05;;;22.20;96.90;;;;;;4181699;28;20037;-84
2022/08/26 00:59:16;;;;;;;20.15;10.32;;;22.20;96.40;;;;;;4180922;28;20128;-84
2022/08/26 01:01:17;;;;;;;22.00;11.60;;;22.30;96.40;;;;;;4181681;28;20053;-84
2022/08/26 01:03:23;;;;;;;20.45;12.30;;;22.30;96.60;;;;;;4183163;28;20041;-84
2022/08/26 01:05:24;;;;;;;20.08;10.60;;;22.30;96.80;;;;;;4180890;28;20098;-84
2022/08/26 01:07:28;;;;;;;17.23;10.02;;;22.30;96.90;;;;;;4165765;28;20057;-85
2022/08/26 01:09:30;;;;;;;26.85;12.07;;;22.40;97.10;;;;;;4165648;28;20548;-84
2022/08/26 01:11:32;;;;;;;25.88;12.15;;;22.40;97.00;;;;;;4165618;28;20104;-84
2022/08/26 01:13:36;;;;;;;22.58;11.68;;;22.40;97.20;;;;;;4164067;28;20200;-84
2022/08/26 01:15:44;;;;;;;20.83;11.63;;;22.40;97.20;;;;;;4165897;28;20117;-84
2022/08/26 01:17:46;;;;;;;23.08;11.60;;;22.40;97.50;;;;;;4165648;28;20037;-84
2022/08/26 01:20:01;;;;;;;21.52;11.32;;;22.40;97.30;;;;;;4165785;28;20052;-84
2022/08/26 01:22:18;;;;;;;22.80;11.77;;;22.40;97.60;;;;;;4165460;28;20052;-84
2022/08/26 01:24:19;;;;;;;27.05;11.80;;;22.40;97.50;;;;;;4165286;28;20049;-83
2022/08/26 01:26:33;;;;;;;23.90;10.85;;;22.40;97.50;;;;;;4165764;28;20042;-84
2022/08/26 01:28:35;;;;;;;25.60;11.45;;;22.40;97.60;;;;;;4165992;28;20049;-84
2022/08/26 01:30:39;;;;;;;27.10;11.65;;;22.40;97.60;;;;;;4163335;28;20140;-84
2022/08/26 01:32:41;;;;;;;25.58;12.63;;;22.40;97.70;;;;;;4165446;28;20041;-84
2022/08/26 01:34:42;;;;;;;27.00;11.90;;;22.40;97.70;;;;;;4165580;28;20052;-84
2022/08/26 01:36:45;;;;;;;25.27;12.52;;;22.40;97.70;;;;;;4165197;28;20045;-84
2022/08/26 01:38:46;;;;;;;24.23;11.93;;;22.40;97.80;;;;;;4164595;28;20081;-83
2022/08/26 01:40:47;;;;;;;28.13;11.25;;;22.40;97.90;;;;;;4165368;28;20042;-84
2022/08/26 01:42:48;;;;;;;25.15;12.70;;;22.40;97.90;;;;;;4164057;28;20114;-84
2022/08/26 01:45:10;;;;;;;21.83;10.70;;;22.40;98.00;;;;;;4163548;28;20049;-84
2022/08/26 01:47:15;;;;;;;28.15;13.20;;;22.40;98.30;;;;;;4164409;28;20057;-84
2022/08/26 01:49:17;;;;;;;23.85;11.45;;;22.30;98.10;;;;;;4162838;28;20495;-84
2022/08/26 01:51:20;;;;;;;22.70;11.95;;;22.30;98.10;;;;;;4164678;28;20049;-84
2022/08/26 01:53:23;;;;;;;25.00;13.13;;;22.30;98.20;;;;;;4163932;28;20554;-84
2022/08/26 01:55:25;;;;;;;21.80;11.70;;;22.30;98.20;;;;;;4165061;28;20049;-84
2022/08/26 01:57:27;;;;;;;26.08;12.77;;;22.20;98.30;;;;;;4164003;28;20557;-84
2022/08/26 01:59:29;;;;;;;24.85;11.90;;;22.20;98.30;;;;;;4164043;28;20046;-84
2022/08/26 02:01:30;;;;;;;25.30;11.80;;;22.20;98.40;;;;;;4164966;28;20128;-83
2022/08/26 02:03:32;;;;;;;25.38;11.73;;;22.20;98.50;;;;;;4163825;28;20049;-84
2022/08/26 02:05:33;;;;;;;26.15;11.65;;;22.20;98.50;;;;;;4167353;28;24278;-83
2022/08/26 02:07:33;;;;;;;24.27;11.98;;;22.20;98.50;;;;;;4179918;28;20041;-84
2022/08/26 02:09:38;;;;;;;21.27;10.75;;;22.20;98.70;;;;;;4180962;28;20057;-84
2022/08/26 02:11:39;;;;;;;24.25;11.70;;;22.20;98.80;;;;;;4181894;28;20414;-83
2022/08/26 02:13:50;;;;;;;27.58;11.63;;;22.20;98.80;;;;;;4181346;28;20049;-84
2022/08/26 02:15:53;;;;;;;22.42;11.30;;;22.20;99.00;;;;;;4181397;28;20044;-84
2022/08/26 02:17:53;;;;;;;24.08;11.35;;;22.10;98.90;;;;;;4181374;28;20049;-84
2022/08/26 02:19:55;;;;;;;25.58;11.23;;;22.10;99.00;;;;;;4182920;28;20123;-85
2022/08/26 02:21:58;;;;;;;24.27;12.23;;;22.10;99.10;;;;;;4183146;28;20041;-85
2022/08/26 02:24:09;;;;;;;21.50;12.05;;;22.10;99.10;;;;;;4181535;28;20057;-85
2022/08/26 02:26:16;;;;;;;24.10;11.43;;;22.10;99.40;;;;;;4181494;28;20128;-85
2022/08/26 02:28:17;;;;;;;27.77;12.10;;;22.00;99.40;;;;;;4181879;28;20052;-84
2022/08/26 02:30:24;;;;;;;29.55;12.43;;;22.10;99.40;;;;;;4182937;28;20114;-84
2022/08/26 02:32:25;;;;;;;25.65;11.35;;;22.00;99.50;;;;;;4182730;28;20541;-85
2022/08/26 02:34:29;;;;;;;26.42;12.18;;;22.10;99.50;;;;;;4181422;28;20052;-84
2022/08/26 02:36:30;;;;;;;25.42;11.90;;;22.00;99.50;;;;;;4183106;28;20053;-85
2022/08/26 02:38:30;;;;;;;24.25;11.90;;;22.00;99.60;;;;;;4182526;28;20126;-85
2022/08/26 02:40:35;;;;;;;25.45;11.50;;;22.00;99.60;;;;;;4184466;28;20084;-84
2022/08/26 02:42:36;;;;;;;22.45;11.80;;;22.00;99.60;;;;;;4184875;28;20041;-84
2022/08/26 02:44:37;;;;;;;26.80;11.60;;;22.00;99.60;;;;;;4184835;28;20097;-84
2022/08/26 02:46:38;;;;;;;25.05;10.63;;;22.00;99.90;;;;;;4185262;28;20086;-85
2022/08/26 02:48:38;;;;;;;26.92;11.07;;;22.00;99.70;;;;;;4183850;28;20045;-84
2022/08/26 02:50:40;;;;;;;20.75;10.70;;;22.00;99.70;;;;;;4183688;28;20071;-84
2022/08/26 02:52:40;;;;;;;33.78;11.35;;;22.00;99.80;;;;;;4184002;28;20048;-84
2022/08/26 02:54:42;;;;;;;28.17;12.23;;;22.00;99.80;;;;;;4185014;28;20498;-85
2022/08/26 02:56:44;;;;;;;26.15;11.63;;;22.00;99.80;;;;;;4183611;28;20052;-84
2022/08/26 02:58:45;;;;;;;25.40;10.40;;;22.00;99.90;;;;;;4184904;28;20047;-84
2022/08/26 03:00:46;;;;;;;23.02;11.57;;;22.00;99.90;;;;;;4184899;28;20120;-85
2022/08/26 03:02:47;;;;;;;28.10;11.40;;;21.90;99.90;;;;;;4183893;28;20498;-84
2022/08/26 03:04:49;;;;;;;22.20;11.10;;;21.90;99.90;;;;;;4184375;28;20048;-84
2022/08/26 03:06:50;;;;;;;24.95;10.82;;;21.90;99.90;;;;;;4183753;28;20465;-84
2022/08/26 03:08:51;;;;;;;25.08;10.95;;;21.90;99.90;;;;;;4184087;28;20045;-85
2022/08/26 03:10:51;;;;;;;27.75;11.35;;;21.90;99.90;;;;;;4184378;28;20045;-85
2022/08/26 03:12:53;;;;;;;27.92;10.82;;;21.90;99.90;;;;;;4183571;28;20045;-84
2022/08/26 03:14:55;;;;;;;27.40;11.07;;;21.90;99.90;;;;;;4184126;28;20437;-85
2022/08/26 03:16:56;;;;;;;23.13;10.98;;;21.90;99.90;;;;;;4183894;28;20738;-84
2022/08/26 03:18:56;;;;;;;25.05;11.63;;;21.80;99.90;;;;;;4183128;28;20063;-85
2022/08/26 03:21:11;;;;;;;26.67;11.52;;;21.80;99.90;;;;;;4182916;28;20068;-84
2022/08/26 03:23:13;;;;;;;21.60;10.40;;;21.80;99.90;;;;;;4184426;28;20068;-84
2022/08/26 03:25:15;;;;;;;21.88;10.02;;;21.80;99.90;;;;;;4182751;28;20060;-85
2022/08/26 03:27:16;;;;;;;22.88;10.55;;;21.80;99.90;;;;;;4182925;28;20049;-84
2022/08/26 03:31:35;;;;;;;;;;;21.80;99.90;;;;;;4182843;28;20141;-83
2022/08/26 03:33:36;;;;;;;25.58;9.82;;;21.80;99.90;;;;;;4182885;28;19929;-85
2022/08/26 03:35:39;;;;;;;22.50;9.52;;;21.80;99.90;;;;;;4184069;28;20052;-85
2022/08/26 03:37:40;;;;;;;21.35;9.18;;;21.80;99.90;;;;;;4182589;28;20084;-85
2022/08/26 03:39:41;;;;;;;21.60;9.18;;;21.80;99.90;;;;;;4183169;28;20053;-85
2022/08/26 03:41:45;;;;;;;31.80;10.55;;;21.80;99.90;;;;;;4183103;28;20048;-85
2022/08/26 03:43:49;;;;;;;26.08;10.63;;;21.80;99.90;;;;;;4181922;28;20469;-84
2022/08/26 03:45:50;;;;;;;25.98;10.07;;;21.80;99.90;;;;;;4165576;28;20041;-85
2022/08/26 03:47:52;;;;;;;24.92;9.85;;;21.80;99.90;;;;;;4182120;28;20099;-85
2022/08/26 03:49:52;;;;;;;22.45;10.95;;;21.80;99.90;;;;;;4182510;28;20068;-84
2022/08/26 03:51:54;;;;;;;24.23;9.65;;;21.80;99.90;;;;;;4183996;28;20114;-84
2022/08/26 03:53:55;;;;;;;25.08;8.65;;;21.80;99.90;;;;;;4184041;28;20433;-84
2022/08/26 03:55:56;;;;;;;17.95;8.77;;;21.80;99.90;;;;;;4182255;28;20126;-83
2022/08/26 03:57:58;;;;;;;19.23;7.72;;;21.80;99.90;;;;;;4184000;28;20044;-84
2022/08/26 04:00:00;;;;;;;19.90;8.85;;;21.80;99.90;;;;;;4181953;28;20041;-84
2022/08/26 04:02:02;;;;;;;22.13;8.68;;;21.80;99.90;;;;;;4183849;28;20051;-84
2022/08/26 04:04:03;;;;;;;23.85;8.43;;;21.70;99.90;;;;;;4183018;28;20053;-84
2022/08/26 04:06:03;;;;;;;17.50;8.38;;;21.70;99.90;;;;;;4182585;28;20049;-84
2022/08/26 04:08:05;;;;;;;17.60;8.75;;;21.70;99.90;;;;;;4182145;28;20071;-84
2022/08/26 04:10:07;;;;;;;22.88;8.32;;;21.70;99.90;;;;;;4181789;28;20056;-84
2022/08/26 04:12:09;;;;;;;20.27;8.52;;;21.70;99.90;;;;;;4164837;28;20113;-84
2022/08/26 04:14:13;;;;;;;15.55;7.88;;;21.60;99.90;;;;;;4182097;28;20045;-85
2022/08/26 04:16:16;;;;;;;16.00;7.75;;;21.60;99.90;;;;;;4183331;28;20048;-84
2022/08/26 04:18:17;;;;;;;21.58;8.60;;;21.60;99.90;;;;;;4183155;28;20045;-83
2022/08/26 04:20:18;;;;;;;15.38;7.70;;;21.50;99.90;;;;;;4183485;28;20041;-83
2022/08/26 04:22:19;;;;;;;16.25;7.70;;;21.60;99.90;;;;;;4183103;28;20041;-85
2022/08/26 04:24:23;;;;;;;18.13;7.80;;;21.60;99.90;;;;;;4181657;28;20052;-84
2022/08/26 04:26:24;;;;;;;15.85;7.28;;;21.60;99.90;;;;;;4183279;28;20053;-84
2022/08/26 04:28:27;;;;;;;18.52;8.48;;;21.50;99.90;;;;;;4182045;28;20572;-83
2022/08/26 04:30:28;;;;;;;19.30;7.47;;;21.50;99.90;;;;;;4182891;28;20036;-84
2022/08/26 04:32:30;;;;;;;24.52;8.52;;;21.60;99.90;;;;;;4183155;28;20049;-83
2022/08/26 04:34:31;;;;;;;22.52;8.50;;;21.50;99.90;;;;;;4181823;28;20513;-85
2022/08/26 04:36:32;;;;;;;19.65;8.48;;;21.50;99.90;;;;;;4182826;28;20045;-84
2022/08/26 04:38:33;;;;;;;22.33;8.00;;;21.60;99.90;;;;;;4180908;28;20069;-83
2022/08/26 04:40:34;;;;;;;21.42;9.10;;;21.60;99.90;;;;;;4183261;28;20049;-84
2022/08/26 04:42:34;;;;;;;19.20;8.57;;;21.50;99.90;;;;;;4164402;28;20120;-84
2022/08/26 04:44:37;;;;;;;18.23;9.23;;;21.50;99.90;;;;;;4183177;28;20057;-83
2022/08/26 04:46:38;;;;;;;15.70;8.68;;;21.50;99.90;;;;;;4181517;28;20419;-84
2022/08/26 04:48:39;;;;;;;17.30;9.15;;;21.50;99.90;;;;;;4182558;28;20056;-84
2022/08/26 04:50:40;;;;;;;18.23;7.75;;;21.50;99.90;;;;;;4182305;28;20379;-85
2022/08/26 04:52:41;;;;;;;19.38;8.43;;;21.50;99.90;;;;;;4181175;28;20048;-85
2022/08/26 04:54:42;;;;;;;19.60;8.30;;;21.50;99.90;;;;;;4180091;28;20064;-85
2022/08/26 04:56:45;;;;;;;22.73;9.15;;;21.50;99.90;;;;;;4180931;28;20041;-84
2022/08/26 04:58:46;;;;;;;18.40;8.55;;;21.50;99.90;;;;;;4179664;28;20053;-84
2022/08/26 05:00:48;;;;;;;24.85;9.55;;;21.50;99.90;;;;;;4163693;28;20045;-85
2022/08/26 05:02:49;;;;;;;18.20;9.30;;;21.50;99.90;;;;;;4182533;28;20045;-84
2022/08/26 05:04:50;;;;;;;21.30;8.18;;;21.50;99.90;;;;;;4180926;28;20045;-85
2022/08/26 05:06:51;;;;;;;17.70;7.50;;;21.50;99.90;;;;;;4181013;28;20041;-84
2022/08/26 05:08:53;;;;;;;16.92;7.80;;;21.50;99.90;;;;;;4181987;28;20166;-85
2022/08/26 05:10:54;;;;;;;19.75;7.20;;;21.50;99.90;;;;;;4182422;28;20068;-84
2022/08/26 05:12:58;;;;;;;19.70;7.20;;;21.50;99.90;;;;;;4164743;28;20408;-84
2022/08/26 05:15:00;;;;;;;22.75;6.63;;;21.50;99.90;;;;;;4181071;28;20486;-84
2022/08/26 05:17:01;;;;;;;19.10;7.20;;;21.50;99.90;;;;;;4182252;28;20513;-84
2022/08/26 05:19:03;;;;;;;16.98;7.45;;;21.50;99.90;;;;;;4181691;28;20084;-85
2022/08/26 05:21:04;;;;;;;16.05;7.28;;;21.50;99.90;;;;;;4169096;28;20509;-84
2022/08/26 05:23:05;;;;;;;19.15;7.05;;;21.50;99.90;;;;;;4182028;28;20497;-84
2022/08/26 05:25:06;;;;;;;18.83;7.50;;;21.50;99.90;;;;;;4181403;28;20123;-86
2022/08/26 05:27:08;;;;;;;15.38;6.90;;;21.50;99.90;;;;;;4166201;28;20095;-87
2022/08/26 05:29:09;;;;;;;17.20;6.68;;;21.40;99.90;;;;;;4164751;28;20049;-85
2022/08/26 05:31:16;;;;;;;26.55;7.65;;;21.50;99.90;;;;;;4164462;28;20050;-85
2022/08/26 05:33:18;;;;;;;19.08;7.72;;;21.50;99.90;;;;;;4166115;28;20541;-82
2022/08/26 05:35:18;;;;;;;26.55;7.93;;;21.50;99.90;;;;;;4165963;28;20128;-83
2022/08/26 05:37:19;;;;;;;17.98;6.65;;;21.50;99.90;;;;;;4164648;28;20073;-84
2022/08/26 05:39:22;;;;;;;24.35;6.80;;;21.50;99.90;;;;;;4182088;28;20515;-84
2022/08/26 05:41:29;;;;;;;20.90;7.70;;;21.50;99.90;;;;;;4182194;28;20095;-84
2022/08/26 05:43:30;;;;;;;19.05;7.97;;;21.60;99.90;;;;;;4181376;28;20501;-84
2022/08/26 05:45:32;;;;;;;20.60;7.22;;;21.60;99.90;;;;;;4181791;28;20124;-83
2022/08/26 05:47:33;;;;;;;20.42;8.20;;;21.60;99.90;;;;;;4181853;28;20052;-83
2022/08/26 05:49:34;;;;;;;20.63;8.35;;;21.60;99.90;;;;;;4181796;28;20531;-83
2022/08/26 05:51:35;;;;;;;17.42;7.75;;;21.60;99.90;;;;;;4182255;28;20059;-83
2022/08/26 05:53:38;;;;;;;19.52;7.88;;;21.60;99.90;;;;;;4182624;28;20048;-83
2022/08/26 05:55:58;;;;;;;13.13;7.43;;;21.60;99.90;;;;;;4184616;28;20510;-84
2022/08/26 05:57:59;;;;;;;20.50;8.23;;;21.60;99.90;;;;;;4174130;28;20474;-84
2022/08/26 06:00:00;;;;;;;20.00;8.25;;;21.60;99.90;;;;;;4184819;28;20048;-83
2022/08/26 06:02:01;;;;;;;20.95;8.23;;;21.70;99.90;;;;;;4183175;28;20037;-83
2022/08/26 06:04:02;;;;;;;17.95;7.50;;;21.70;99.90;;;;;;4184821;28;20047;-83
2022/08/26 06:06:09;;;;;;;16.90;7.63;;;21.70;99.90;;;;;;4185724;28;20053;-84
2022/08/26 06:08:10;;;;;;;17.55;6.95;;;21.70;99.90;;;;;;4185195;28;20040;-84
2022/08/26 06:10:12;;;;;;;26.67;7.35;;;21.70;99.90;;;;;;4185177;28;20056;-83
2022/08/26 06:12:14;;;;;;;19.45;7.38;;;21.70;99.90;;;;;;4183586;28;20079;-82
2022/08/26 06:14:16;;;;;;;14.93;7.25;;;21.80;99.90;;;;;;4183096;28;20060;-82
2022/08/26 06:16:19;;;;;;;20.80;7.45;;;21.80;99.90;;;;;;4182828;28;20124;-83
2022/08/26 06:18:33;;;;;;;18.48;7.30;;;21.80;99.90;;;;;;4183712;28;20167;-86
2022/08/26 06:20:35;;;;;;;18.30;7.25;;;21.80;99.90;;;;;;4183854;28;20045;-85
2022/08/26 06:27:17;;;;;;;14.88;6.45;;;21.90;99.90;;;;;;4183320;28;20052;-85
2022/08/26 06:29:21;;;;;;;16.67;6.15;;;21.90;99.90;;;;;;4182889;28;20050;-85
2022/08/26 06:31:23;;;;;;;14.00;6.13;;;21.90;99.90;;;;;;4183778;28;20049;-85
2022/08/26 06:33:26;;;;;;;15.20;5.90;;;21.90;99.90;;;;;;4183586;28;20048;-85
2022/08/26 06:35:27;;;;;;;15.70;6.00;;;22.00;99.90;;;;;;4183636;28;20080;-85
2022/08/26 06:37:28;;;;;;;18.30;5.70;;;22.00;99.90;;;;;;4183064;28;20037;-85
2022/08/26 06:39:29;;;;;;;19.27;6.53;;;22.10;99.90;;;;;;4181775;28;20451;-85
2022/08/26 06:41:33;;;;;;;19.10;6.68;;;22.10;99.90;;;;;;4183359;28;20067;-85
2022/08/26 06:43:34;;;;;;;30.25;7.25;;;22.10;99.90;;;;;;4183396;28;20546;-85
2022/08/26 06:45:34;;;;;;;16.60;5.68;;;22.20;99.90;;;;;;4183523;28;20044;-85
2022/08/26 06:47:35;;;;;;;17.15;5.20;;;22.20;99.90;;;;;;4183251;28;20108;-85
2022/08/26 06:49:36;;;;;;;15.88;5.68;;;22.20;99.90;;;;;;4180977;28;20136;-84
2022/08/26 06:51:39;;;;;;;15.38;5.20;;;22.30;99.90;;;;;;4183151;28;20422;-84
2022/08/26 06:53:44;;;;;;;16.00;5.32;;;22.30;99.90;;;;;;4181657;28;20420;-83
2022/08/26 06:55:45;;;;;;;16.55;6.20;;;22.20;99.90;;;;;;4186818;28;20049;-83
2022/08/26 06:57:46;;;;;;;15.40;6.22;;;22.20;99.90;;;;;;4184209;28;20171;-83
2022/08/26 06:59:47;;;;;;;16.00;5.32;;;22.30;99.90;;;;;;4185706;28;20449;-83
2022/08/26 07:01:48;;;;;;;12.80;4.95;;;22.20;99.90;;;;;;4182355;28;20037;-84
2022/08/26 07:03:55;;;;;;;10.30;4.63;;;22.20;99.90;;;;;;4182644;28;20073;-84
2022/08/26 07:06:02;;;;;;;14.60;4.60;;;22.20;99.90;;;;;;4181488;28;20490;-84
2022/08/26 07:08:04;;;;;;;13.40;4.80;;;22.20;99.90;;;;;;4177270;28;20051;-84
2022/08/26 07:10:07;;;;;;;13.98;5.10;;;22.10;99.90;;;;;;4183148;28;20556;-84
2022/08/26 07:12:08;;;;;;;17.30;4.60;;;22.10;99.90;;;;;;4182407;28;20064;-83
2022/08/26 07:14:09;;;;;;;11.82;4.03;;;22.10;99.90;;;;;;4181878;28;20047;-84
2022/08/26 07:16:12;;;;;;;14.70;4.88;;;22.10;99.90;;;;;;4181246;28;20132;-83
2022/08/26 07:18:13;;;;;;;12.38;4.68;;;22.10;99.90;;;;;;4185384;28;20516;-84
2022/08/26 07:20:14;;;;;;;24.17;5.82;;;22.00;99.90;;;;;;4173426;28;20170;-83
2022/08/26 07:22:18;;;;;;;16.50;5.20;;;22.10;99.90;;;;;;4184863;28;20052;-83
2022/08/26 07:24:21;;;;;;;8.68;4.65;;;22.00;99.90;;;;;;4184135;28;20040;-83
2022/08/26 07:26:26;;;;;;;12.75;4.53;;;22.10;99.90;;;;;;4182025;28;20036;-83
2022/08/26 07:28:27;;;;;;;11.25;4.10;;;22.00;99.90;;;;;;4180600;28;20152;-83
2022/08/26 07:30:28;;;;;;;12.18;4.13;;;22.10;99.90;;;;;;4181102;28;20129;-82
2022/08/26 07:32:28;;;;;;;12.60;3.60;;;22.10;99.90;;;;;;4193355;28;20044;-82
2022/08/26 07:34:31;;;;;;;9.50;3.55;;;22.10;99.90;;;;;;4183130;28;20402;-82
2022/08/26 07:36:32;;;;;;;9.50;3.60;;;22.10;99.90;;;;;;4184462;28;20049;-82
2022/08/26 07:38:34;;;;;;;12.10;3.78;;;22.10;99.90;;;;;;4184580;28;20387;-83
2022/08/26 07:40:35;;;;;;;15.05;3.78;;;22.10;99.90;;;;;;4183160;28;20049;-83
2022/08/26 07:42:35;;;;;;;13.07;4.53;;;22.10;99.90;;;;;;4182593;28;20064;-83
2022/08/26 07:44:36;;;;;;;8.43;4.20;;;22.10;99.90;;;;;;4184092;28;20129;-83
2022/08/26 07:46:37;;;;;;;12.57;3.92;;;22.20;99.90;;;;;;4182288;28;20170;-83
2022/08/26 07:48:38;;;;;;;12.98;4.05;;;22.30;99.90;;;;;;4176130;28;20069;-83
2022/08/26 07:50:40;;;;;;;6.65;2.92;;;22.30;99.90;;;;;;4179374;28;20055;-84
2022/08/26 07:52:41;;;;;;;12.32;2.90;;;22.40;99.90;;;;;;4184086;28;20475;-83
2022/08/26 07:54:43;;;;;;;9.88;2.80;;;22.50;99.80;;;;;;4183460;28;20514;-83
2022/08/26 07:56:45;;;;;;;10.98;2.63;;;22.50;99.70;;;;;;4184259;28;20045;-82
2022/08/26 07:58:45;;;;;;;8.30;2.80;;;22.60;99.50;;;;;;4182178;28;20084;-82
2022/08/26 08:00:46;;;;;;;6.18;2.42;;;22.60;99.30;;;;;;4165738;28;20054;-82
2022/08/26 08:02:48;;;;;;;8.70;2.20;;;22.60;99.10;;;;;;4183584;28;20052;-82
2022/08/26 08:04:50;;;;;;;12.10;2.35;;;22.60;99.00;;;;;;4184152;28;20402;-82
2022/08/26 08:06:51;;;;;;;6.68;1.80;;;22.60;98.90;;;;;;4183969;28;20517;-82
2022/08/26 08:08:51;;;;;;;5.80;1.60;;;22.60;98.90;;;;;;4185110;28;20049;-84
2022/08/26 08:10:52;;;;;;;5.45;1.60;;;22.60;98.90;;;;;;4184097;28;20048;-85
2022/08/26 08:12:55;;;;;;;9.13;2.60;;;22.60;98.80;;;;;;4182763;28;20048;-83
2022/08/26 08:14:55;;;;;;;7.93;2.33;;;22.60;98.70;;;;;;4182273;28;20044;-84
2022/08/26 08:16:56;;;;;;;5.85;1.70;;;22.70;98.50;;;;;;4181711;28;20140;-88
2022/08/26 08:18:58;;;;;;;3.88;1.83;;;22.70;98.50;;;;;;4183536;28;20402;-85
2022/08/26 08:21:02;;;;;;;10.20;1.92;;;22.80;98.50;;;;;;4182009;28;20506;-84
2022/08/26 08:23:03;;;;;;;8.00;2.22;;;22.80;98.40;;;;;;4183163;28;20094;-84
2022/08/26 08:25:05;;;;;;;6.22;1.85;;;22.80;98.40;;;;;;4166035;28;20646;-84
2022/08/26 08:27:06;;;;;;;5.97;1.45;;;22.80;98.30;;;;;;4184028;28;20076;-83
2022/08/26 08:29:07;;;;;;;9.55;1.95;;;22.90;98.20;;;;;;4164430;28;20049;-83
2022/08/26 08:31:08;;;;;;;6.03;1.77;;;22.90;98.10;;;;;;4182064;28;20037;-84
2022/08/26 08:33:09;;;;;;;8.13;1.40;;;23.00;98.00;;;;;;4181956;28;20041;-83
2022/08/26 08:35:12;;;;;;;10.02;1.63;;;23.10;97.90;;;;;;4181943;28;20048;-83
2022/08/26 08:37:14;;;;;;;12.27;3.05;;;23.10;97.80;;;;;;4182155;28;20049;-83
2022/08/26 08:39:16;;;;;;;9.27;1.67;;;23.00;97.70;;;;;;4182103;28;20044;-83
2022/08/26 08:41:35;;;;;;;8.85;1.20;;;23.10;97.80;;;;;;4182403;28;20555;-83
2022/08/26 08:43:43;;;;;;;7.05;1.80;;;23.00;97.70;;;;;;4184288;28;20551;-83
2022/08/26 08:45:55;;;;;;;9.37;1.50;;;23.00;97.90;;;;;;4180203;28;20044;-84
2022/08/26 08:47:59;;;;;;;9.05;1.60;;;23.00;97.90;;;;;;4182507;28;20286;-84
2022/08/26 08:50:17;;;;;;;5.68;1.48;;;23.00;98.00;;;;;;4181480;28;20537;-84
2022/08/26 08:52:34;;;;;;;6.70;1.48;;;22.90;98.00;;;;;;4171204;28;20044;-84
2022/08/26 08:54:35;;;;;;;6.18;1.25;;;22.90;97.90;;;;;;4180882;28;20056;-84
2022/08/26 08:56:48;;;;;;;14.25;3.47;;;22.90;98.00;;;;;;4180956;28;20044;-85
2022/08/26 08:58:58;;;;;;;7.50;1.35;;;22.90;98.00;;;;;;4182005;28;20124;-83
2022/08/26 09:01:07;;;;;;;6.72;1.85;;;22.90;97.90;;;;;;4182074;28;20128;-85
2022/08/26 09:03:18;;;;;;;;;;;22.90;97.80;;;;;;4180765;28;20474;-85
2022/08/26 09:05:24;;;;;;;8.73;1.40;;;23.00;97.90;;;;;;4180266;28;19928;-85
2022/08/26 09:07:47;;;;;;;11.95;1.92;;;22.90;97.70;;;;;;4179857;28;20041;-84
2022/08/26 09:09:59;;;;;;;5.90;1.50;;;22.90;97.70;;;;;;4180028;28;20049;-85
2022/08/26 09:12:01;;;;;;;7.25;2.13;;;22.90;97.60;;;;;;4178301;28;20490;-85
2022/08/26 09:14:01;;;;;;;6.30;1.70;;;22.90;97.60;;;;;;4181255;28;20040;-84
2022/08/26 09:16:09;;;;;;;9.80;1.85;;;22.90;97.60;;;;;;4179829;28;20056;-84
2022/08/26 09:18:23;;;;;;;6.78;1.30;;;22.90;97.60;;;;;;4178230;28;20495;-84
2022/08/26 09:20:36;;;;;;;6.82;1.63;;;22.90;97.60;;;;;;4180225;28;20064;-85
2022/08/26 09:22:38;;;;;;;6.80;1.45;;;22.80;97.50;;;;;;4154388;28;20056;-84
2022/08/26 09:24:40;;;;;;;5.95;1.73;;;22.80;97.50;;;;;;4172263;28;20405;-84
2022/08/26 09:26:45;;;;;;;6.68;1.23;;;22.80;97.50;;;;;;4177496;28;20042;-84
2022/08/26 09:28:56;;;;;;;8.77;1.75;;;22.70;97.50;;;;;;4180211;28;20486;-85
2022/08/26 09:31:12;;;;;;;5.55;1.52;;;22.70;97.50;;;;;;4181263;28;20037;-83
2022/08/26 09:33:17;;;;;;;7.78;1.85;;;22.70;97.60;;;;;;4181079;28;20064;-84
2022/08/26 09:35:26;;;;;;;5.65;1.60;;;22.70;97.50;;;;;;4179204;28;20040;-84
2022/08/26 09:37:45;;;;;;;8.25;1.58;;;22.70;97.40;;;;;;4180109;28;20044;-83
2022/08/26 09:39:46;;;;;;;7.40;1.30;;;22.70;97.30;;;;;;4179901;28;20099;-84
2022/08/26 09:42:19;;;;;;;6.53;1.60;;;22.70;97.20;;;;;;4152800;28;20483;-83
2022/08/26 09:44:20;;;;;;;8.88;1.83;;;22.70;97.10;;;;;;4178391;28;20124;-85
2022/08/26 09:46:26;;;;;;;4.95;1.80;;;22.70;97.10;;;;;;4180519;28;20045;-85
2022/08/26 09:48:34;;;;;;;4.50;1.08;;;22.70;97.00;;;;;;4181787;28;20060;-85
2022/08/26 09:50:50;;;;;;;;;;;22.80;97.00;;;;;;4180885;28;20045;-85
2022/08/26 09:53:12;;;;;;;3.55;1.27;;;22.80;96.80;;;;;;4169542;28;19917;-85
2022/08/26 09:55:20;;;;;;;7.88;2.38;;;22.90;96.70;;;;;;4173658;28;20049;-85
2022/08/26 09:57:28;;;;;;;9.10;1.60;;;23.10;96.40;;;;;;4181341;28;20067;-85
2022/08/26 09:59:29;;;;;;;6.47;1.60;;;23.30;96.20;;;;;;4180357;28;20045;-85
2022/08/26 10:01:41;;;;;;;8.73;2.00;;;23.50;95.80;;;;;;4180744;28;20053;-85
2022/08/26 10:03:43;;;;;;;7.78;1.90;;;23.60;95.50;;;;;;4182092;28;20124;-85
2022/08/26 10:05:58;;;;;;;3.03;1.15;;;23.60;95.40;;;;;;4181295;28;20056;-85
2022/08/26 10:08:06;;;;;;;6.95;2.00;;;23.60;95.20;;;;;;4180742;28;20033;-85
2022/08/26 10:10:32;;;;;;;5.32;1.77;;;23.60;95.30;;;;;;4167059;28;20045;-84
2022/08/26 10:12:37;;;;;;;8.43;1.00;;;23.60;95.20;;;;;;4177643;28;20053;-85
2022/08/26 10:15:00;;;;;;;8.48;1.30;;;23.50;95.20;;;;;;4181363;28;20052;-85
2022/08/26 10:17:04;;;;;;;5.43;1.25;;;23.40;95.20;;;;;;4179600;28;20045;-86
2022/08/26 10:19:14;;;;;;;7.95;1.50;;;23.30;95.30;;;;;;4169728;28;20502;-86
2022/08/26 10:21:25;;;;;;;5.25;1.38;;;23.20;95.30;;;;;;4181698;28;20112;-84
2022/08/26 10:23:31;;;;;;;7.75;1.83;;;23.20;95.30;;;;;;4179970;28;20557;-85
2022/08/26 10:25:41;;;;;;;8.85;1.30;;;23.20;95.30;;;;;;4182521;28;20041;-86
2022/08/26 10:28:05;;;;;;;7.00;2.03;;;23.30;95.30;;;;;;4180300;28;20047;-85
2022/08/26 10:30:12;;;;;;;4.85;1.25;;;23.20;95.20;;;;;;4179350;28;20106;-85
2022/08/26 10:32:31;;;;;;;7.03;1.83;;;23.20;95.30;;;;;;4181022;28;20128;-85
2022/08/26 10:34:33;;;;;;;6.05;1.15;;;23.10;95.20;;;;;;4181426;28;20411;-85
2022/08/26 10:36:49;;;;;;;5.03;1.33;;;23.10;95.30;;;;;;4179686;28;20061;-85
2022/08/26 10:38:51;;;;;;;6.25;1.67;;;22.60;95.20;;;;;;4177731;28;20524;-85
2022/08/26 10:41:10;;;;;;;5.65;1.40;;;23.10;95.30;;;;;;4182963;28;20413;-85
2022/08/26 10:43:17;;;;;;;5.45;1.52;;;23.10;95.10;;;;;;4184749;28;20662;-85